createdAt,value
2019-02-23T00:01:51.563Z,99650.63
2019-02-23T00:04:23.298Z,99650.63
2019-02-23T00:06:55.159Z,99655.02
2019-02-23T00:09:26.804Z,99655.02
2019-02-23T00:11:58.533Z,99666.91
2019-02-23T00:14:29.945Z,99659.16
2019-02-23T00:17:01.596Z,99661.55
2019-02-23T00:19:33.372Z,99661.55
2019-02-23T00:22:05.266Z,99658.59
2019-02-23T00:24:37.229Z,99653.02
2019-02-23T00:27:08.883Z,99668.02
2019-02-23T00:29:40.353Z,99668.02
2019-02-23T00:32:12.232Z,99671.42
2019-02-23T00:34:44.060Z,99676.54
2019-02-23T00:37:15.697Z,99679.80
2019-02-23T00:39:47.231Z,99684.10
2019-02-23T00:42:18.669Z,99690.40
2019-02-23T00:44:50.154Z,99690.40
2019-02-23T00:47:21.624Z,99688.93
2019-02-23T00:49:53.229Z,99692.75
2019-02-23T00:52:24.982Z,99698.03
2019-02-23T00:54:56.495Z,99698.03
2019-02-23T00:57:28.374Z,99703.80
2019-02-23T00:59:59.945Z,99702.70
2019-02-23T01:02:31.852Z,99724.20
2019-02-23T01:05:03.392Z,99724.20
2019-02-23T01:07:35.048Z,99729.98
2019-02-23T01:10:07.201Z,99733.92
2019-02-23T01:12:38.868Z,99728.48
2019-02-23T01:15:11.720Z,99732.64
2019-02-23T01:17:43.689Z,99732.64
2019-02-23T01:20:15.553Z,99734.30
2019-02-23T01:22:47.233Z,99743.92
2019-02-23T01:25:18.965Z,99742.58
2019-02-23T01:27:51.102Z,99742.58
2019-02-23T01:30:22.830Z,99737.42
2019-02-23T01:32:54.589Z,99737.42
2019-02-23T01:35:26.159Z,99745.33
2019-02-23T01:37:57.832Z,99747.96
2019-02-23T01:40:30.037Z,99754.49
2019-02-23T01:43:01.830Z,99754.49
2019-02-23T01:45:42.031Z,99760.91
2019-02-23T01:48:07.160Z,99760.91
2019-02-23T01:50:39.139Z,99771.42
2019-02-23T01:53:10.798Z,99771.42
2019-02-23T01:55:42.405Z,99780.03
2019-02-23T01:58:14.273Z,99775.42
2019-02-23T02:00:46.042Z,99775.42
2019-02-23T02:03:18.128Z,99774.02
2019-02-23T02:05:51.032Z,99778.45
2019-02-23T02:08:22.623Z,99763.89
2019-02-23T02:10:54.301Z,99763.89
2019-02-23T02:13:25.829Z,99767.84
2019-02-23T02:15:57.472Z,99763.27
2019-02-23T02:18:29.133Z,99774.19
2019-02-23T02:21:00.938Z,99776.56
2019-02-23T02:23:32.603Z,99790.76
2019-02-23T02:26:04.353Z,99790.76
2019-02-23T02:28:35.918Z,99801.16
2019-02-23T02:31:07.533Z,99798.03
2019-02-23T02:34:00.221Z,99798.20
2019-02-23T02:36:31.830Z,99808.27
2019-02-23T02:39:03.542Z,99803.65
2019-02-23T02:41:37.016Z,99814.54
2019-02-23T02:44:08.536Z,99810.84
2019-02-23T02:46:40.251Z,99810.35
2019-02-23T02:49:11.862Z,99819.40
2019-02-23T02:51:43.655Z,99824.56
2019-02-23T02:54:15.268Z,99827.44
2019-02-23T02:56:47.111Z,99827.44
2019-02-23T02:59:18.816Z,99838.12
2019-02-23T03:01:50.503Z,99844.08
2019-02-23T03:04:22.268Z,99853.64
2019-02-23T03:06:54.084Z,99853.64
2019-02-23T03:09:25.485Z,99855.34
2019-02-23T03:11:57.181Z,99853.19
2019-02-23T03:14:28.829Z,99868.39
2019-02-23T03:17:00.624Z,99861.45
2019-02-23T03:19:32.288Z,99861.45
2019-02-23T03:22:03.911Z,99847.95
2019-02-23T03:24:35.584Z,99847.20
2019-02-23T03:27:07.461Z,99848.28
2019-02-23T03:29:38.829Z,99848.28
2019-02-23T03:32:10.467Z,99865.23
2019-02-23T03:34:42.108Z,99862.91
2019-02-23T03:37:13.781Z,99868.73
2019-02-23T03:39:45.480Z,99868.73
2019-02-23T03:42:17.381Z,99870.69
2019-02-23T03:44:49.343Z,99865.14
2019-02-23T03:47:21.166Z,99872.05
2019-02-23T03:49:52.792Z,99872.05
2019-02-23T03:52:24.893Z,99881.26
2019-02-23T03:54:57.178Z,99881.26
2019-02-23T03:57:29.091Z,99889.89
2019-02-23T04:00:01.152Z,99895.72
2019-02-23T04:02:32.838Z,99899.23
2019-02-23T04:05:04.501Z,99897.86
2019-02-23T04:07:36.341Z,99897.86
2019-02-23T04:10:08.519Z,99895.78
2019-02-23T04:12:40.526Z,99895.78
2019-02-23T04:15:12.428Z,99885.27
2019-02-23T04:17:44.084Z,99888.05
2019-02-23T04:20:15.830Z,99882.05
2019-02-23T04:22:47.556Z,99887.39
2019-02-23T04:25:18.995Z,99887.39
2019-02-23T04:27:50.859Z,99880.57
2019-02-23T04:30:22.576Z,99880.57
2019-02-23T04:32:54.428Z,99886.67
2019-02-23T04:35:27.171Z,99877.70
2019-02-23T04:37:58.744Z,99869.38
2019-02-23T04:40:30.223Z,99869.38
2019-02-23T04:43:02.505Z,99870.25
2019-02-23T04:45:34.451Z,99881.09
2019-02-23T04:48:06.111Z,99881.09
2019-02-23T04:50:37.883Z,99876.52
2019-02-23T04:53:09.669Z,99885.13
2019-02-23T04:55:41.429Z,99882.14
2019-02-23T04:58:13.084Z,99877.52
2019-02-23T05:00:45.060Z,99881.56
2019-02-23T05:03:16.861Z,99878.77
2019-02-23T05:05:48.490Z,99867.59
2019-02-23T05:08:20.272Z,99882.67
2019-02-23T05:10:51.900Z,99879.26
2019-02-23T05:13:23.579Z,99883.95
2019-02-23T05:15:55.226Z,99873.11
2019-02-23T05:18:26.909Z,99873.98
2019-02-23T05:20:58.612Z,99866.69
2019-02-23T05:23:30.347Z,99866.69
2019-02-23T05:26:01.791Z,99852.97
2019-02-23T05:28:33.348Z,99837.55
2019-02-23T05:31:05.061Z,99837.55
2019-02-23T05:33:37.001Z,99825.16
2019-02-23T05:36:08.756Z,99826.63
2019-02-23T05:38:40.287Z,99820.46
2019-02-23T05:41:12.095Z,99814.28
2019-02-23T05:43:44.071Z,99824.98
2019-02-23T05:46:16.082Z,99819.00
2019-02-23T05:48:47.808Z,99819.00
2019-02-23T05:51:19.510Z,99799.34
2019-02-23T05:53:50.872Z,99799.34
2019-02-23T05:56:22.489Z,99795.02
2019-02-23T05:58:54.122Z,99794.16
2019-02-23T06:01:25.752Z,99786.63
2019-02-23T06:03:58.930Z,99786.63
2019-02-23T06:06:30.966Z,99785.07
2019-02-23T06:09:02.671Z,99785.22
2019-02-23T06:11:36.184Z,99784.92
2019-02-23T06:14:07.895Z,99772.95
2019-02-23T06:16:39.979Z,99760.91
2019-02-23T06:19:11.621Z,99759.70
2019-02-23T06:21:53.105Z,99757.71
2019-02-23T06:24:16.354Z,99763.70
2019-02-23T06:26:48.113Z,99763.70
2019-02-23T06:29:19.892Z,99752.42
2019-02-23T06:31:51.494Z,99752.42
2019-02-23T06:34:23.881Z,99746.20
2019-02-23T06:36:55.751Z,99746.20
2019-02-23T06:39:29.416Z,99740.58
2019-02-23T06:42:02.743Z,99745.09
2019-02-23T06:44:37.724Z,99737.09
2019-02-23T06:47:10.339Z,99737.09
2019-02-23T06:49:42.102Z,99725.47
2019-02-23T06:52:13.810Z,99725.47
2019-02-23T06:54:45.333Z,99719.21
2019-02-23T06:57:17.123Z,99721.28
2019-02-23T06:59:48.643Z,99721.28
2019-02-23T07:02:20.000Z,99711.78
2019-02-23T07:04:51.703Z,99706.56
2019-02-23T07:07:23.617Z,99701.85
2019-02-23T07:09:55.279Z,99701.85
2019-02-23T07:12:26.995Z,99695.86
2019-02-23T07:14:58.503Z,99691.62
2019-02-23T07:17:32.949Z,99677.20
2019-02-23T07:20:04.593Z,99677.20
2019-02-23T07:22:36.454Z,99668.08
2019-02-23T07:25:08.201Z,99664.77
2019-02-23T07:27:39.990Z,99660.22
2019-02-23T07:30:12.372Z,99656.02
2019-02-23T07:32:44.164Z,99645.08
2019-02-23T07:35:15.895Z,99641.50
2019-02-23T07:37:48.069Z,99641.50
2019-02-23T07:40:19.547Z,99630.16
2019-02-23T07:42:51.717Z,99619.39
2019-02-23T07:45:23.321Z,99619.39
2019-02-23T07:47:54.873Z,99609.80
2019-02-23T07:50:26.468Z,99609.80
2019-02-23T07:52:58.072Z,99593.41
2019-02-23T07:55:33.723Z,99598.94
2019-02-23T07:58:07.952Z,99578.88
2019-02-23T08:00:39.563Z,99578.88
2019-02-23T08:03:11.266Z,99567.41
2019-02-23T08:05:42.824Z,99567.41
2019-02-23T08:08:14.256Z,99580.84
2019-02-23T08:10:45.728Z,99565.97
2019-02-23T08:13:17.291Z,99565.97
2019-02-23T08:15:49.007Z,99561.45
2019-02-23T08:18:21.686Z,99547.09
2019-02-23T08:20:53.156Z,99545.98
2019-02-23T08:23:24.863Z,99528.91
2019-02-23T08:25:56.395Z,99528.91
2019-02-23T08:28:32.325Z,99522.65
2019-02-23T08:31:10.090Z,99520.26
2019-02-23T08:33:43.578Z,99509.42
2019-02-23T08:36:19.643Z,99509.42
2019-02-23T08:38:51.720Z,99505.41
2019-02-23T08:41:23.425Z,99499.16
2019-02-23T08:43:54.905Z,99499.16
2019-02-23T08:46:26.848Z,99493.81
2019-02-23T08:48:58.416Z,99473.34
2019-02-23T08:51:30.572Z,99473.34
2019-02-23T08:54:02.298Z,99470.33
2019-02-23T08:56:34.160Z,99460.22
2019-02-23T08:59:06.003Z,99463.37
2019-02-23T09:01:37.805Z,99449.88
2019-02-23T09:04:09.753Z,99443.53
2019-02-23T09:06:41.253Z,99444.61
2019-02-23T09:09:13.107Z,99437.80
2019-02-23T09:11:44.916Z,99437.80
2019-02-23T09:14:16.406Z,99438.90
2019-02-23T09:16:48.133Z,99433.66
2019-02-23T09:19:19.952Z,99421.92
2019-02-23T09:21:52.023Z,99421.92
2019-02-23T09:24:23.774Z,99416.59
2019-02-23T09:26:55.641Z,99420.71
2019-02-23T09:29:27.183Z,99438.53
2019-02-23T09:31:58.938Z,99442.57
2019-02-23T09:34:30.474Z,99442.57
2019-02-23T09:37:02.341Z,99439.06
2019-02-23T09:39:34.244Z,99439.06
2019-02-23T09:42:07.778Z,99437.87
2019-02-23T09:44:39.672Z,99436.48
2019-02-23T09:47:11.636Z,99444.89
2019-02-23T09:49:43.495Z,99444.73
2019-02-23T09:52:15.456Z,99446.41
2019-02-23T09:54:47.079Z,99436.28
2019-02-23T09:57:19.045Z,99440.66
2019-02-23T09:59:52.077Z,99445.45
2019-02-23T10:02:24.193Z,99445.45
2019-02-23T10:05:01.327Z,99446.95
2019-02-23T10:07:32.906Z,99446.95
2019-02-23T10:10:04.797Z,99450.50
2019-02-23T10:12:36.856Z,99450.50
2019-02-23T10:15:08.809Z,99440.80
2019-02-23T10:17:40.539Z,99436.03
2019-02-23T10:20:13.497Z,99433.22
2019-02-23T10:22:46.429Z,99433.22
2019-02-23T10:25:17.769Z,99444.55
2019-02-23T10:27:49.811Z,99444.55
2019-02-23T10:30:21.415Z,99440.41
2019-02-23T10:32:52.805Z,99445.31
2019-02-23T10:35:24.360Z,99441.92
2019-02-23T10:37:55.937Z,99436.41
2019-02-23T10:40:27.662Z,99436.41
2019-02-23T10:42:59.418Z,99442.42
2019-02-23T10:45:31.053Z,99438.06
2019-02-23T10:48:02.604Z,99438.06
2019-02-23T10:50:34.238Z,99448.67
2019-02-23T10:53:05.795Z,99447.36
2019-02-23T10:55:37.641Z,99445.73
2019-02-23T10:58:09.498Z,99445.48
2019-02-23T11:00:41.344Z,99444.16
2019-02-23T11:03:13.106Z,99443.47
2019-02-23T11:05:45.047Z,99443.47
2019-02-23T11:08:16.893Z,99448.67
2019-02-23T11:10:48.476Z,99437.37
2019-02-23T11:13:20.238Z,99424.70
2019-02-23T11:15:51.762Z,99424.70
2019-02-23T11:18:25.029Z,99421.70
2019-02-23T11:20:57.851Z,99421.70
2019-02-23T11:23:30.079Z,99426.33
2019-02-23T11:26:01.650Z,99414.89
2019-02-23T11:28:33.596Z,99414.89
2019-02-23T11:31:05.823Z,99415.75
2019-02-23T11:33:37.570Z,99423.59
2019-02-23T11:36:09.287Z,99424.34
2019-02-23T11:38:41.170Z,99435.23
2019-02-23T11:41:12.987Z,99435.23
2019-02-23T11:43:45.845Z,99435.99
2019-02-23T11:46:17.687Z,99442.91
2019-02-23T11:48:49.295Z,99442.00
2019-02-23T11:51:20.692Z,99448.50
2019-02-23T11:53:55.311Z,99448.50
2019-02-23T11:56:26.118Z,99450.49
2019-02-23T11:58:57.875Z,99456.40
2019-02-23T12:01:29.329Z,99456.40
2019-02-23T12:04:01.084Z,99446.19
2019-02-23T12:06:35.086Z,99446.19
2019-02-23T12:09:10.967Z,99443.34
2019-02-23T12:11:45.227Z,99443.34
2019-02-23T12:14:19.115Z,99447.97
2019-02-23T12:16:53.268Z,99452.92
2019-02-23T12:19:32.021Z,99466.05
2019-02-23T12:22:12.305Z,99464.08
2019-02-23T12:24:43.222Z,99464.25
2019-02-23T12:27:14.940Z,99470.43
2019-02-23T12:29:47.762Z,99456.45
2019-02-23T12:32:19.325Z,99456.45
2019-02-23T12:34:50.954Z,99452.13
2019-02-23T12:37:22.452Z,99453.17
2019-02-23T12:39:54.535Z,99451.86
2019-02-23T12:42:27.654Z,99452.87
2019-02-23T12:44:59.757Z,99446.02
2019-02-23T12:47:32.030Z,99443.98
2019-02-23T12:50:03.783Z,99440.68
2019-02-23T12:52:38.162Z,99432.44
2019-02-23T12:55:10.263Z,99424.36
2019-02-23T12:57:42.032Z,99423.41
2019-02-23T13:00:14.128Z,99423.41
2019-02-23T13:02:46.044Z,99429.34
2019-02-23T13:05:17.939Z,99429.34
2019-02-23T13:07:49.655Z,99429.92
2019-02-23T13:10:21.170Z,99427.80
2019-02-23T13:13:20.726Z,99433.21
2019-02-23T13:16:21.772Z,99438.65
2019-02-23T13:19:44.660Z,99441.84
2019-02-23T13:22:59.721Z,99436.57
2019-02-23T13:26:36.451Z,99447.41
2019-02-23T13:29:18.824Z,99449.20
2019-02-23T13:32:13.799Z,99453.05
2019-02-23T13:35:01.048Z,99455.95
2019-02-23T13:37:41.582Z,99461.80
2019-02-23T13:40:20.188Z,99459.64
2019-02-23T13:43:31.451Z,99464.16
2019-02-23T13:46:23.763Z,99464.34
2019-02-23T13:49:19.166Z,99474.67
2019-02-23T13:52:15.043Z,99476.52
2019-02-23T13:55:18.221Z,99484.66
2019-02-23T13:58:22.602Z,99492.80
2019-02-23T14:01:33.465Z,99493.08
2019-02-23T14:04:54.917Z,99493.08
2019-02-23T14:08:05.016Z,99492.89
2019-02-23T14:10:49.851Z,99498.56
2019-02-23T14:14:08.695Z,99489.16
2019-02-23T14:16:52.435Z,99492.11
2019-02-23T14:19:52.032Z,99498.89
2019-02-23T14:23:07.228Z,99511.95
2019-02-23T14:26:06.102Z,99511.95
2019-02-23T14:28:59.778Z,99528.55
2019-02-23T14:31:51.859Z,99528.86
2019-02-23T14:34:55.295Z,99535.48
2019-02-23T14:37:59.785Z,99537.59
2019-02-23T14:41:03.169Z,99537.59
2019-02-23T14:44:15.446Z,99547.66
2019-02-23T14:47:26.161Z,99549.30
2019-02-23T14:50:20.521Z,99549.30
2019-02-23T14:53:27.284Z,99545.44
2019-02-23T14:56:29.182Z,99560.41
2019-02-23T14:59:08.663Z,99566.25
2019-02-23T15:02:30.094Z,99566.25
2019-02-23T15:05:30.453Z,99569.79
2019-02-23T15:08:22.193Z,99575.73
2019-02-23T15:11:24.840Z,99565.80
2019-02-23T15:14:51.984Z,99565.80
2019-02-23T15:18:00.233Z,99568.52
2019-02-23T15:21:03.950Z,99572.27
2019-02-23T15:24:11.434Z,99570.50
2019-02-23T15:27:57.127Z,99570.50
2019-02-23T15:31:16.698Z,99586.52
2019-02-23T15:34:40.315Z,99586.52
2019-02-23T15:37:42.779Z,99598.83
2019-02-23T15:40:46.788Z,99602.53
2019-02-23T15:43:47.358Z,99595.47
2019-02-23T15:47:00.640Z,99594.23
2019-02-23T15:49:34.385Z,99594.23
2019-02-23T15:52:08.088Z,99595.77
2019-02-23T15:54:39.639Z,99602.84
2019-02-23T15:57:11.464Z,99606.15
2019-02-23T15:59:44.464Z,99605.31
2019-02-23T16:02:16.753Z,99605.31
2019-02-23T16:04:48.238Z,99601.53
2019-02-23T16:07:20.057Z,99602.61
2019-02-23T16:09:51.747Z,99606.31
2019-02-23T16:12:23.901Z,99606.08
2019-02-23T16:14:55.722Z,99606.08
2019-02-23T16:17:27.569Z,99603.72
2019-02-23T16:19:59.260Z,99601.56
2019-02-23T16:22:31.325Z,99597.55
2019-02-23T16:25:03.150Z,99600.16
2019-02-23T16:27:35.041Z,99600.16
2019-02-23T16:30:07.419Z,99597.91
2019-02-23T16:32:39.215Z,99595.60
2019-02-23T16:35:11.048Z,99595.97
2019-02-23T16:37:42.719Z,99598.58
2019-02-23T16:40:14.389Z,99589.17
2019-02-23T16:42:45.890Z,99589.17
2019-02-23T16:45:17.843Z,99587.47
2019-02-23T16:47:49.535Z,99592.40
2019-02-23T16:50:21.030Z,99588.16
2019-02-23T16:52:52.793Z,99588.16
2019-02-23T16:55:24.425Z,99591.39
2019-02-23T16:57:56.137Z,99590.91
2019-02-23T17:00:28.031Z,99590.91
2019-02-23T17:02:59.533Z,99585.77
2019-02-23T17:05:31.250Z,99579.86
2019-02-23T17:08:02.693Z,99579.41
2019-02-23T17:10:34.554Z,99579.41
2019-02-23T17:13:06.460Z,99574.57
2019-02-23T17:15:38.080Z,99574.50
2019-02-23T17:18:10.109Z,99564.94
2019-02-23T17:20:41.887Z,99557.23
2019-02-23T17:23:13.942Z,99555.92
2019-02-23T17:25:45.542Z,99556.41
2019-02-23T17:28:17.282Z,99553.52
2019-02-23T17:30:48.748Z,99553.52
2019-02-23T17:33:20.159Z,99556.41
2019-02-23T17:35:52.215Z,99553.45
2019-02-23T17:38:23.994Z,99551.93
2019-02-23T17:40:55.539Z,99542.56
2019-02-23T17:43:27.010Z,99542.72
2019-02-23T17:45:58.360Z,99544.08
2019-02-23T17:51:01.153Z,99534.77
2019-02-23T17:53:33.058Z,99525.48
2019-02-23T17:56:10.405Z,99525.48
2019-02-23T17:58:38.045Z,99520.83
2019-02-23T18:01:09.546Z,99508.23
2019-02-23T18:03:41.023Z,99504.61
2019-02-23T18:06:12.737Z,99500.80
2019-02-23T18:08:44.227Z,99493.64
2019-02-23T18:11:15.750Z,99493.20
2019-02-23T18:13:48.459Z,99492.78
2019-02-23T18:16:21.507Z,99492.78
2019-02-23T18:18:53.152Z,99496.20
2019-02-23T18:21:24.762Z,99496.20
2019-02-23T18:23:55.947Z,99497.87
2019-02-23T18:26:27.709Z,99483.02
2019-02-23T18:29:01.908Z,99483.02
2019-02-23T18:31:33.713Z,99483.44
2019-02-23T18:34:05.296Z,99483.44
2019-02-23T18:36:37.031Z,99478.49
2019-02-23T18:39:08.614Z,99478.49
2019-02-23T18:41:40.711Z,99485.81
2019-02-23T18:44:12.527Z,99475.91
2019-02-23T18:46:43.940Z,99474.03
2019-02-23T18:49:15.695Z,99472.66
2019-02-23T18:51:47.034Z,99475.37
2019-02-23T18:54:18.520Z,99475.62
2019-02-23T18:56:50.248Z,99476.48
2019-02-23T18:59:21.791Z,99476.48
2019-02-23T19:01:53.270Z,99480.31
2019-02-23T19:04:24.918Z,99472.92
2019-02-23T19:06:56.820Z,99475.37
2019-02-23T19:09:28.267Z,99465.19
2019-02-23T19:11:59.994Z,99459.91
2019-02-23T19:14:31.696Z,99468.52
2019-02-23T19:17:03.238Z,99468.52
2019-02-23T19:19:35.833Z,99457.70
2019-02-23T19:22:07.434Z,99457.70
2019-02-23T19:24:39.405Z,99447.50
2019-02-23T19:27:11.108Z,99439.31
2019-02-23T19:29:42.741Z,99438.11
2019-02-23T19:32:14.273Z,99438.11
2019-02-23T19:34:45.907Z,99440.11
2019-02-23T19:37:17.457Z,99438.41
2019-02-23T19:39:49.072Z,99438.41
2019-02-23T19:42:21.929Z,99437.63
2019-02-23T19:44:53.519Z,99437.63
2019-02-23T19:47:28.088Z,99433.20
2019-02-23T19:50:03.282Z,99429.69
2019-02-23T19:52:35.202Z,99429.69
2019-02-23T19:55:07.496Z,99417.16
2019-02-23T19:57:40.106Z,99412.06
2019-02-23T20:00:11.480Z,99413.91
2019-02-23T20:02:43.905Z,99413.91
2019-02-23T20:05:15.549Z,99422.25
2019-02-23T20:07:47.695Z,99422.25
2019-02-23T20:10:19.203Z,99407.13
2019-02-23T20:12:50.608Z,99407.13
2019-02-23T20:15:22.293Z,99413.52
2019-02-23T20:17:54.686Z,99424.46
2019-02-23T20:20:26.829Z,99425.38
2019-02-23T20:22:59.229Z,99417.17
2019-02-23T20:25:30.512Z,99415.75
2019-02-23T20:28:01.880Z,99415.75
2019-02-23T20:30:33.328Z,99405.45
2019-02-23T20:33:04.972Z,99419.64
2019-02-23T20:35:36.750Z,99426.89
2019-02-23T20:38:08.314Z,99426.61
2019-02-23T20:40:41.009Z,99423.04
2019-02-23T20:43:12.424Z,99414.89
2019-02-23T20:45:43.988Z,99415.61
2019-02-23T20:48:15.297Z,99415.61
2019-02-23T20:50:46.759Z,99391.79
2019-02-23T20:53:18.382Z,99391.79
2019-02-23T20:55:50.989Z,99374.86
2019-02-23T20:58:22.750Z,99372.98
2019-02-23T21:00:54.357Z,99370.87
2019-02-23T21:03:25.956Z,99370.87
2019-02-23T21:05:57.717Z,99358.05
2019-02-23T21:08:29.250Z,99358.05
2019-02-23T21:11:00.866Z,99355.24
2019-02-23T21:13:32.403Z,99358.72
2019-02-23T21:16:04.209Z,99355.86
2019-02-23T21:18:35.864Z,99359.11
2019-02-23T21:21:07.509Z,99353.08
2019-02-23T21:23:39.240Z,99353.08
2019-02-23T21:26:10.851Z,99346.70
2019-02-23T21:28:42.743Z,99346.70
2019-02-23T21:31:14.260Z,99349.30
2019-02-23T21:33:46.008Z,99349.30
2019-02-23T21:36:17.443Z,99352.49
2019-02-23T21:38:49.164Z,99340.98
2019-02-23T21:41:21.711Z,99333.43
2019-02-23T21:43:53.282Z,99333.43
2019-02-23T21:46:24.831Z,99324.38
2019-02-23T21:48:56.214Z,99324.38
2019-02-23T21:51:27.676Z,99321.91
2019-02-23T21:53:59.400Z,99325.17
2019-02-23T21:56:30.948Z,99323.92
2019-02-23T21:59:03.336Z,99334.67
2019-02-23T22:01:34.982Z,99329.84
2019-02-23T22:04:06.418Z,99329.84
2019-02-23T22:06:37.993Z,99317.67
2019-02-23T22:09:09.640Z,99319.03
2019-02-23T22:11:41.621Z,99319.88
2019-02-23T22:14:13.324Z,99304.38
2019-02-23T22:16:44.725Z,99304.38
2019-02-23T22:19:16.470Z,99291.96
2019-02-23T22:21:48.109Z,99295.36
2019-02-23T22:24:19.571Z,99295.36
2019-02-23T22:26:50.799Z,99295.74
2019-02-23T22:29:22.776Z,99295.74
2019-02-23T22:31:54.304Z,99301.08
2019-02-23T22:34:26.075Z,99301.08
2019-02-23T22:36:57.586Z,99299.19
2019-02-23T22:39:29.016Z,99297.90
2019-02-23T22:42:00.759Z,99294.36
2019-02-23T22:44:32.196Z,99293.31
2019-02-23T22:47:03.819Z,99285.80
2019-02-23T22:49:35.553Z,99285.80
2019-02-23T22:52:08.275Z,99282.42
2019-02-23T22:54:39.658Z,99289.22
2019-02-23T22:57:11.317Z,99292.22
2019-02-23T22:59:44.062Z,99292.22
2019-02-23T23:02:15.605Z,99295.72
2019-02-23T23:04:48.048Z,99288.31
2019-02-23T23:07:20.056Z,99275.67
2019-02-23T23:09:51.344Z,99275.67
2019-02-23T23:12:22.839Z,99265.48
2019-02-23T23:14:54.442Z,99265.48
2019-02-23T23:17:26.065Z,99276.20
2019-02-23T23:19:57.535Z,99273.11
2019-02-23T23:22:29.120Z,99273.11
2019-02-23T23:25:00.720Z,99275.89
2019-02-23T23:27:32.636Z,99277.91
2019-02-23T23:30:05.039Z,99266.26
2019-02-23T23:32:36.603Z,99268.34
2019-02-23T23:35:08.623Z,99268.34
2019-02-23T23:37:40.568Z,99265.73
2019-02-23T23:40:12.513Z,99285.72
2019-02-23T23:42:44.145Z,99280.97
2019-02-23T23:45:15.983Z,99280.97
2019-02-23T23:47:47.753Z,99286.95
2019-02-23T23:50:19.449Z,99266.52
2019-02-23T23:52:51.154Z,99254.30
2019-02-23T23:55:23.189Z,99241.09
2019-02-23T23:57:58.365Z,99235.61
